createdAt,value
2022-10-17T00:00:04.147Z,488.48
2022-10-17T00:00:14.148Z,488.45
2022-10-17T00:00:24.148Z,488.56
2022-10-17T00:00:34.132Z,488.48
2022-10-17T00:00:44.149Z,488.43
2022-10-17T00:00:54.154Z,488.40
2022-10-17T00:01:04.204Z,488.51
2022-10-17T00:01:14.174Z,488.54
2022-10-17T00:01:24.182Z,488.50
2022-10-17T00:01:34.203Z,488.51
2022-10-17T00:01:44.295Z,488.51
2022-10-17T00:01:54.208Z,488.55
2022-10-17T00:02:04.159Z,488.50
2022-10-17T00:02:14.179Z,488.57
2022-10-17T00:02:24.144Z,488.57
2022-10-17T00:02:34.163Z,488.48
2022-10-17T00:02:44.166Z,488.50
2022-10-17T00:02:54.165Z,488.39
2022-10-17T00:03:04.169Z,488.39
2022-10-17T00:03:14.166Z,488.47
2022-10-17T00:03:24.180Z,488.42
2022-10-17T00:03:34.171Z,488.49
2022-10-17T00:03:44.174Z,488.48
2022-10-17T00:03:54.171Z,488.44
2022-10-17T00:04:04.172Z,488.37
2022-10-17T00:04:14.174Z,488.43
2022-10-17T00:04:24.278Z,488.42
2022-10-17T00:04:44.181Z,488.53
2022-10-17T00:04:54.207Z,488.51
2022-10-17T00:05:04.181Z,488.49
2022-10-17T00:05:14.178Z,488.51
2022-10-17T00:05:24.181Z,488.54
2022-10-17T00:05:34.179Z,488.57
2022-10-17T00:05:44.164Z,488.56
2022-10-17T00:05:54.181Z,488.41
2022-10-17T00:06:04.165Z,488.43
2022-10-17T00:06:14.183Z,488.50
2022-10-17T00:06:24.184Z,488.46
2022-10-17T00:06:34.184Z,488.45
2022-10-17T00:06:44.186Z,488.38
2022-10-17T00:06:54.187Z,488.35
2022-10-17T00:07:04.187Z,488.45
2022-10-17T00:07:14.189Z,488.41
2022-10-17T00:07:24.194Z,488.30
2022-10-17T00:07:34.193Z,488.36
2022-10-17T00:07:44.195Z,488.37
2022-10-17T00:07:54.194Z,488.42
2022-10-17T00:08:04.195Z,488.38
2022-10-17T00:08:14.180Z,488.46
2022-10-17T00:08:24.195Z,488.46
2022-10-17T00:08:34.198Z,488.35
2022-10-17T00:08:44.202Z,488.28
2022-10-17T00:08:54.203Z,488.28
2022-10-17T00:09:04.202Z,488.45
2022-10-17T00:09:14.205Z,488.52
2022-10-17T00:09:24.203Z,488.49
2022-10-17T00:09:34.186Z,488.50
2022-10-17T00:09:44.213Z,488.52
2022-10-17T00:09:54.208Z,488.62
2022-10-17T00:10:04.208Z,488.60
2022-10-17T00:10:14.192Z,488.59
2022-10-17T00:10:24.211Z,488.59
2022-10-17T00:10:34.214Z,488.55
2022-10-17T00:10:44.194Z,488.55
2022-10-17T00:10:54.214Z,488.61
2022-10-17T00:11:04.216Z,488.55
2022-10-17T00:11:14.217Z,488.57
2022-10-17T00:11:24.216Z,488.56
2022-10-17T00:11:34.202Z,488.54
2022-10-17T00:11:44.217Z,488.62
2022-10-17T00:11:54.219Z,488.59
2022-10-17T00:12:04.205Z,488.59
2022-10-17T00:12:14.222Z,488.68
2022-10-17T00:12:24.223Z,488.64
2022-10-17T00:12:34.223Z,488.58
2022-10-17T00:12:44.207Z,488.56
2022-10-17T00:12:54.206Z,488.56
2022-10-17T00:13:04.247Z,488.49
2022-10-17T00:13:14.210Z,488.54
2022-10-17T00:13:24.300Z,488.64
2022-10-17T00:13:34.233Z,488.67
2022-10-17T00:13:44.230Z,488.58
2022-10-17T00:13:54.232Z,488.44
2022-10-17T00:14:04.233Z,488.37
2022-10-17T00:14:14.236Z,488.46
2022-10-17T00:14:24.235Z,488.44
2022-10-17T00:14:34.264Z,488.52
2022-10-17T00:14:44.221Z,488.48
2022-10-17T00:14:54.238Z,488.46
2022-10-17T00:15:04.242Z,488.41
2022-10-17T00:15:14.262Z,488.45
2022-10-17T00:15:24.242Z,488.41
2022-10-17T00:15:34.254Z,488.46
2022-10-17T00:15:44.227Z,488.42
2022-10-17T00:15:54.229Z,488.40
2022-10-17T00:16:04.230Z,488.48
2022-10-17T00:16:14.248Z,488.42
2022-10-17T00:16:24.251Z,488.45
2022-10-17T00:16:34.250Z,488.58
2022-10-17T00:16:44.250Z,488.52
2022-10-17T00:16:54.251Z,488.45
2022-10-17T00:17:04.253Z,488.48
2022-10-17T00:17:14.262Z,488.47
2022-10-17T00:17:24.299Z,488.62
2022-10-17T00:17:34.254Z,488.54
2022-10-17T00:17:44.259Z,488.58
2022-10-17T00:17:54.240Z,488.60
2022-10-17T00:18:04.260Z,488.53
2022-10-17T00:18:14.259Z,488.61
2022-10-17T00:18:24.286Z,488.63
2022-10-17T00:18:34.261Z,488.65
2022-10-17T00:18:44.262Z,488.58
2022-10-17T00:18:54.262Z,488.57
2022-10-17T00:19:04.245Z,488.51
2022-10-17T00:19:14.266Z,488.59
2022-10-17T00:19:24.262Z,488.65
2022-10-17T00:19:34.263Z,488.67
2022-10-17T00:19:44.271Z,488.72
2022-10-17T00:19:54.268Z,488.80
2022-10-17T00:20:04.265Z,488.85
2022-10-17T00:20:14.272Z,488.90
2022-10-17T00:20:24.268Z,488.95
2022-10-17T00:20:34.270Z,488.94
2022-10-17T00:20:44.268Z,488.91
2022-10-17T00:20:54.269Z,488.89
2022-10-17T00:21:04.272Z,488.87
2022-10-17T00:21:14.272Z,488.74
2022-10-17T00:21:24.274Z,488.86
2022-10-17T00:21:34.256Z,488.90
2022-10-17T00:21:44.277Z,488.87
2022-10-17T00:21:54.278Z,488.90
2022-10-17T00:22:04.280Z,488.85
2022-10-17T00:22:14.278Z,488.86
2022-10-17T00:22:24.316Z,488.95
2022-10-17T00:22:34.287Z,488.87
2022-10-17T00:22:44.281Z,488.94
2022-10-17T00:22:54.270Z,488.94
2022-10-17T00:23:04.282Z,488.93
2022-10-17T00:23:14.283Z,489.02
2022-10-17T00:23:24.286Z,489.01
2022-10-17T00:23:34.289Z,488.99
2022-10-17T00:23:44.287Z,488.99
2022-10-17T00:23:54.292Z,489.06
2022-10-17T00:24:04.291Z,489.05
2022-10-17T00:24:14.288Z,488.94
2022-10-17T00:24:24.289Z,488.97
2022-10-17T00:24:34.291Z,488.95
2022-10-17T00:24:44.292Z,488.93
2022-10-17T00:24:54.292Z,488.94
2022-10-17T00:25:04.297Z,488.90
2022-10-17T00:25:14.294Z,488.89
2022-10-17T00:25:24.293Z,488.99
2022-10-17T00:25:34.278Z,488.95
2022-10-17T00:25:44.297Z,489.07
2022-10-17T00:25:54.297Z,489.05
2022-10-17T00:26:04.279Z,489.01
2022-10-17T00:26:14.300Z,488.97
2022-10-17T00:26:24.301Z,489.00
2022-10-17T00:26:34.302Z,489.00
2022-10-17T00:26:44.289Z,489.02
2022-10-17T00:26:54.304Z,489.04
2022-10-17T00:27:04.305Z,489.04
2022-10-17T00:27:14.308Z,488.96
2022-10-17T00:27:24.324Z,488.89
2022-10-17T00:27:34.291Z,488.89
2022-10-17T00:27:44.312Z,488.98
2022-10-17T00:27:54.311Z,488.99
2022-10-17T00:28:04.313Z,488.98
2022-10-17T00:28:14.313Z,489.06
2022-10-17T00:28:24.325Z,489.03
2022-10-17T00:28:34.390Z,488.98
2022-10-17T00:28:44.335Z,488.97
2022-10-17T00:28:54.351Z,489.02
2022-10-17T00:29:04.390Z,488.91
2022-10-17T00:29:14.321Z,488.94
2022-10-17T00:29:24.322Z,488.94
2022-10-17T00:29:34.322Z,488.93
2022-10-17T00:29:44.324Z,488.92
2022-10-17T00:29:54.325Z,488.92
2022-10-17T00:30:04.325Z,488.99
2022-10-17T00:30:14.326Z,489.01
2022-10-17T00:30:24.326Z,489.04
2022-10-17T00:30:34.328Z,488.96
2022-10-17T00:30:44.329Z,488.97
2022-10-17T00:30:54.329Z,488.93
2022-10-17T00:31:04.329Z,488.98
2022-10-17T00:31:14.334Z,488.97
2022-10-17T00:31:24.331Z,488.99
2022-10-17T00:31:34.334Z,488.96
2022-10-17T00:31:44.364Z,488.90
2022-10-17T00:32:04.318Z,489.01
2022-10-17T00:32:14.339Z,489.06
2022-10-17T00:32:24.338Z,489.00
2022-10-17T00:32:34.321Z,489.00
2022-10-17T00:32:44.337Z,488.95
2022-10-17T00:32:54.323Z,488.95
2022-10-17T00:33:04.325Z,488.99
2022-10-17T00:33:14.346Z,489.00
2022-10-17T00:33:24.324Z,489.06
2022-10-17T00:33:34.347Z,489.01
2022-10-17T00:33:44.347Z,488.99
2022-10-17T00:33:54.345Z,488.99
2022-10-17T00:34:04.351Z,489.09
2022-10-17T00:34:14.343Z,489.07
2022-10-17T00:34:24.344Z,489.06
2022-10-17T00:34:34.353Z,489.11
2022-10-17T00:34:44.346Z,489.10
2022-10-17T00:34:54.352Z,489.08
2022-10-17T00:35:04.354Z,489.21
2022-10-17T00:35:14.349Z,489.19
2022-10-17T00:35:24.350Z,489.29
2022-10-17T00:35:34.350Z,489.32
2022-10-17T00:35:44.353Z,489.31
2022-10-17T00:35:54.353Z,489.25
2022-10-17T00:36:04.352Z,489.20
2022-10-17T00:36:14.355Z,489.20
2022-10-17T00:36:24.355Z,489.22
2022-10-17T00:36:34.356Z,489.25
2022-10-17T00:36:44.357Z,489.22
2022-10-17T00:36:54.368Z,489.21
2022-10-17T00:37:04.356Z,489.18
2022-10-17T00:37:14.360Z,489.16
2022-10-17T00:37:24.360Z,489.28
2022-10-17T00:37:34.361Z,489.15
2022-10-17T00:37:44.362Z,489.15
2022-10-17T00:37:54.363Z,489.26
2022-10-17T00:38:04.346Z,489.22
2022-10-17T00:38:14.364Z,489.23
2022-10-17T00:38:24.391Z,489.23
2022-10-17T00:38:34.371Z,489.26
2022-10-17T00:38:44.366Z,489.27
2022-10-17T00:38:54.369Z,489.43
2022-10-17T00:39:04.367Z,489.42
2022-10-17T00:39:14.369Z,489.40
2022-10-17T00:39:24.371Z,489.33
2022-10-17T00:39:34.372Z,489.25
2022-10-17T00:39:44.372Z,489.22
2022-10-17T00:39:54.372Z,489.41
2022-10-17T00:40:04.375Z,489.36
2022-10-17T00:40:14.376Z,489.30
2022-10-17T00:40:24.374Z,489.39
2022-10-17T00:40:34.377Z,489.37
2022-10-17T00:40:44.408Z,489.31
2022-10-17T00:41:04.383Z,489.38
2022-10-17T00:41:14.381Z,489.40
2022-10-17T00:41:24.381Z,489.33
2022-10-17T00:41:34.386Z,489.40
2022-10-17T00:41:44.386Z,489.28
2022-10-17T00:41:54.385Z,489.23
2022-10-17T00:42:04.370Z,489.39
2022-10-17T00:42:14.386Z,489.50
2022-10-17T00:42:24.734Z,489.52
2022-10-17T00:42:34.389Z,489.55
2022-10-17T00:42:44.390Z,489.55
2022-10-17T00:42:54.393Z,489.52
2022-10-17T00:43:04.394Z,489.60
2022-10-17T00:43:14.396Z,489.59
2022-10-17T00:43:24.390Z,489.64
2022-10-17T00:43:34.398Z,489.64
2022-10-17T00:43:44.394Z,489.59
2022-10-17T00:43:54.396Z,489.61
2022-10-17T00:44:04.376Z,489.64
2022-10-17T00:44:14.395Z,489.55
2022-10-17T00:44:24.396Z,489.55
2022-10-17T00:44:34.427Z,489.49
2022-10-17T00:44:44.399Z,489.46
2022-10-17T00:44:54.399Z,489.45
2022-10-17T00:45:04.384Z,489.43
2022-10-17T00:45:14.402Z,489.53
2022-10-17T00:45:24.385Z,489.59
2022-10-17T00:45:34.403Z,489.57
2022-10-17T00:45:44.404Z,489.62
2022-10-17T00:45:54.388Z,489.59
2022-10-17T00:46:04.408Z,489.54
2022-10-17T00:46:14.408Z,489.64
2022-10-17T00:46:24.410Z,489.52
2022-10-17T00:46:34.408Z,489.43
2022-10-17T00:46:44.409Z,489.47
2022-10-17T00:46:54.393Z,489.52
2022-10-17T00:47:04.412Z,489.48
2022-10-17T00:47:14.412Z,489.38
2022-10-17T00:47:24.413Z,489.42
2022-10-17T00:47:34.415Z,489.41
2022-10-17T00:47:44.417Z,489.29
2022-10-17T00:47:54.416Z,489.30
2022-10-17T00:48:04.420Z,489.35
2022-10-17T00:48:14.421Z,489.39
2022-10-17T00:48:24.423Z,489.44
2022-10-17T00:48:34.423Z,489.47
2022-10-17T00:48:44.420Z,489.43
2022-10-17T00:48:54.423Z,489.44
2022-10-17T00:49:04.428Z,489.37
2022-10-17T00:49:14.425Z,489.29
2022-10-17T00:49:24.426Z,489.38
2022-10-17T00:49:34.429Z,489.47
2022-10-17T00:49:44.427Z,489.48
2022-10-17T00:49:54.445Z,489.47
2022-10-17T00:50:04.444Z,489.39
2022-10-17T00:50:14.428Z,489.46
2022-10-17T00:50:24.414Z,489.43
2022-10-17T00:50:34.435Z,489.28
2022-10-17T00:50:44.432Z,489.26
2022-10-17T00:50:54.434Z,489.15
2022-10-17T00:51:04.432Z,489.20
2022-10-17T00:51:14.433Z,489.08
2022-10-17T00:51:24.436Z,489.04
2022-10-17T00:51:34.436Z,489.09
2022-10-17T00:51:44.435Z,489.08
2022-10-17T00:51:54.437Z,489.07
2022-10-17T00:52:04.438Z,489.01
2022-10-17T00:52:14.439Z,488.93
2022-10-17T00:52:24.476Z,489.06
2022-10-17T00:52:34.439Z,489.20
2022-10-17T00:52:44.443Z,489.08
2022-10-17T00:52:54.447Z,488.97
2022-10-17T00:53:04.443Z,488.95
2022-10-17T00:53:14.448Z,488.88
2022-10-17T00:53:24.449Z,488.87
2022-10-17T00:53:34.476Z,488.89
2022-10-17T00:53:44.450Z,488.84
2022-10-17T00:53:54.450Z,488.89
2022-10-17T00:54:04.455Z,488.93
2022-10-17T00:54:14.451Z,488.91
2022-10-17T00:54:24.453Z,488.98
2022-10-17T00:54:34.455Z,488.98
2022-10-17T00:54:44.453Z,489.00
2022-10-17T00:54:54.455Z,489.03
2022-10-17T00:55:04.455Z,489.05
2022-10-17T00:55:14.455Z,489.02
2022-10-17T00:55:24.454Z,489.01
2022-10-17T00:55:34.456Z,488.95
2022-10-17T00:55:44.458Z,488.92
2022-10-17T00:55:54.457Z,488.89
2022-10-17T00:56:04.461Z,488.87
2022-10-17T00:56:14.458Z,488.76
2022-10-17T00:56:24.458Z,488.83
2022-10-17T00:56:34.462Z,488.79
2022-10-17T00:56:44.459Z,488.80
2022-10-17T00:56:54.461Z,488.82
2022-10-17T00:57:04.472Z,488.79
2022-10-17T00:57:14.464Z,488.83
2022-10-17T00:57:24.464Z,488.84
2022-10-17T00:57:34.470Z,488.86
2022-10-17T00:57:44.464Z,488.84
2022-10-17T00:57:54.466Z,488.90
2022-10-17T00:58:04.468Z,488.86
2022-10-17T00:58:14.470Z,488.83
2022-10-17T00:58:24.469Z,488.78
2022-10-17T00:58:34.472Z,488.66
2022-10-17T00:58:44.476Z,488.66
2022-10-17T00:58:54.520Z,488.68
2022-10-17T00:59:07.491Z,488.61
2022-10-17T00:59:14.476Z,488.55
2022-10-17T00:59:24.473Z,488.64
2022-10-17T00:59:34.474Z,488.54
2022-10-17T00:59:44.477Z,488.52
2022-10-17T00:59:54.476Z,488.47
2022-10-17T01:00:04.478Z,488.48
2022-10-17T01:00:14.486Z,488.56
2022-10-17T01:00:24.487Z,488.59
2022-10-17T01:00:34.480Z,488.57
2022-10-17T01:00:44.482Z,488.50
2022-10-17T01:00:54.485Z,488.51
2022-10-17T01:01:04.515Z,488.49
2022-10-17T01:01:14.564Z,488.62
2022-10-17T01:01:24.536Z,488.69
2022-10-17T01:01:34.524Z,488.62
2022-10-17T01:01:44.529Z,488.67
2022-10-17T01:01:54.472Z,488.62
2022-10-17T01:02:04.490Z,488.58
2022-10-17T01:02:14.491Z,488.49
2022-10-17T01:02:24.699Z,488.38
2022-10-17T01:02:34.493Z,488.31
2022-10-17T01:02:44.497Z,488.41
2022-10-17T01:02:54.494Z,488.48
2022-10-17T01:03:04.495Z,488.62
2022-10-17T01:03:14.497Z,488.64
2022-10-17T01:03:24.497Z,488.58
2022-10-17T01:03:34.496Z,488.47
2022-10-17T01:03:44.501Z,488.44
2022-10-17T01:03:54.500Z,488.39
2022-10-17T01:04:04.501Z,488.45
2022-10-17T01:04:14.503Z,488.37
2022-10-17T01:04:24.502Z,488.33
2022-10-17T01:04:34.502Z,488.35
2022-10-17T01:04:44.505Z,488.36
2022-10-17T01:04:54.503Z,488.32
2022-10-17T01:05:04.505Z,488.29
2022-10-17T01:05:14.506Z,488.21
2022-10-17T01:05:24.507Z,488.18
2022-10-17T01:05:34.508Z,488.25
2022-10-17T01:05:44.513Z,488.24
2022-10-17T01:05:54.510Z,488.22
2022-10-17T01:06:04.510Z,488.13
2022-10-17T01:06:14.512Z,488.15
2022-10-17T01:06:24.493Z,488.13
2022-10-17T01:06:34.513Z,488.19
2022-10-17T01:06:44.512Z,488.17
2022-10-17T01:06:54.515Z,488.21
2022-10-17T01:07:04.514Z,488.24
2022-10-17T01:07:14.515Z,488.22
2022-10-17T01:07:24.500Z,488.24
2022-10-17T01:07:37.142Z,488.14
2022-10-17T01:07:44.500Z,488.22
2022-10-17T01:07:54.521Z,488.12
2022-10-17T01:08:04.523Z,488.14
2022-10-17T01:08:14.521Z,488.13
2022-10-17T01:08:24.558Z,488.19
2022-10-17T01:08:34.524Z,488.26
2022-10-17T01:08:44.512Z,488.22
2022-10-17T01:08:54.526Z,488.11
2022-10-17T01:09:04.527Z,488.06
2022-10-17T01:09:14.509Z,488.13
2022-10-17T01:09:24.530Z,488.32
2022-10-17T01:09:34.529Z,488.29
2022-10-17T01:09:44.529Z,488.22
2022-10-17T01:09:54.536Z,488.17
2022-10-17T01:10:04.532Z,488.15
2022-10-17T01:10:14.556Z,488.17
2022-10-17T01:10:24.538Z,488.16
2022-10-17T01:10:34.545Z,488.28
2022-10-17T01:10:44.534Z,488.36
2022-10-17T01:10:54.536Z,488.45
2022-10-17T01:11:04.541Z,488.46
2022-10-17T01:11:14.537Z,488.38
2022-10-17T01:11:24.539Z,488.41
2022-10-17T01:11:34.539Z,488.37
2022-10-17T01:11:44.540Z,488.37
2022-10-17T01:11:54.541Z,488.28
2022-10-17T01:12:04.543Z,488.26
2022-10-17T01:12:14.546Z,488.24
2022-10-17T01:12:24.569Z,488.11
2022-10-17T01:12:34.545Z,488.11
2022-10-17T01:12:44.548Z,488.12
2022-10-17T01:12:54.529Z,488.11
2022-10-17T01:13:04.528Z,488.22
2022-10-17T01:13:14.549Z,488.32
2022-10-17T01:13:24.550Z,488.37
2022-10-17T01:13:34.555Z,488.39
2022-10-17T01:13:44.556Z,488.37
2022-10-17T01:13:54.554Z,488.32
2022-10-17T01:14:04.554Z,488.11
2022-10-17T01:14:14.558Z,488.06
2022-10-17T01:14:24.556Z,488.08
2022-10-17T01:14:34.556Z,488.15
2022-10-17T01:14:44.560Z,488.23
2022-10-17T01:14:54.559Z,488.30
2022-10-17T01:15:04.563Z,488.31
2022-10-17T01:15:14.545Z,488.29
2022-10-17T01:15:24.567Z,488.25
2022-10-17T01:15:34.563Z,488.32
2022-10-17T01:15:44.545Z,488.36
2022-10-17T01:15:54.566Z,488.33
2022-10-17T01:16:04.552Z,488.37
2022-10-17T01:16:14.568Z,488.51
2022-10-17T01:16:24.568Z,488.49
2022-10-17T01:16:34.568Z,488.48
2022-10-17T01:16:44.567Z,488.35
2022-10-17T01:16:54.572Z,488.33
2022-10-17T01:17:04.569Z,488.29
2022-10-17T01:17:14.571Z,488.30
2022-10-17T01:17:24.561Z,488.26
2022-10-17T01:17:34.578Z,488.16
2022-10-17T01:17:44.574Z,488.16
2022-10-17T01:17:54.603Z,488.14
2022-10-17T01:18:04.576Z,488.10
2022-10-17T01:18:14.577Z,488.00
2022-10-17T01:18:24.577Z,488.05
2022-10-17T01:18:34.578Z,488.03
2022-10-17T01:18:44.579Z,488.08
2022-10-17T01:18:54.585Z,488.34
2022-10-17T01:19:04.562Z,488.17
2022-10-17T01:19:14.601Z,488.04
2022-10-17T01:19:34.585Z,487.94
2022-10-17T01:19:44.585Z,487.94
2022-10-17T01:19:54.585Z,487.83
2022-10-17T01:20:04.587Z,487.81
2022-10-17T01:20:14.588Z,487.82
2022-10-17T01:20:24.571Z,487.83
2022-10-17T01:20:34.590Z,487.81
2022-10-17T01:20:44.590Z,487.81
2022-10-17T01:20:54.591Z,487.78
2022-10-17T01:21:04.591Z,487.79
2022-10-17T01:21:14.594Z,487.70
2022-10-17T01:21:24.595Z,487.82
2022-10-17T01:21:34.597Z,487.75
2022-10-17T01:21:44.597Z,487.76
2022-10-17T01:21:54.598Z,487.63
2022-10-17T01:22:04.599Z,487.66
2022-10-17T01:22:14.598Z,487.68
2022-10-17T01:22:24.820Z,487.67
2022-10-17T01:22:34.600Z,487.65
2022-10-17T01:22:44.583Z,487.63
2022-10-17T01:22:54.609Z,487.68
2022-10-17T01:23:04.585Z,487.68
2022-10-17T01:23:14.602Z,487.59
2022-10-17T01:23:24.602Z,487.43
2022-10-17T01:23:34.605Z,487.52
2022-10-17T01:23:44.610Z,487.64
2022-10-17T01:23:54.608Z,487.58
2022-10-17T01:24:04.605Z,487.72
2022-10-17T01:24:14.607Z,487.64
2022-10-17T01:24:24.609Z,487.57
2022-10-17T01:24:34.608Z,487.69
2022-10-17T01:24:44.612Z,487.69
2022-10-17T01:24:54.610Z,487.73
2022-10-17T01:25:04.614Z,487.78
2022-10-17T01:25:14.620Z,487.68
2022-10-17T01:25:24.599Z,487.69
2022-10-17T01:25:34.614Z,487.70
2022-10-17T01:25:44.615Z,487.62
2022-10-17T01:25:54.619Z,487.61
2022-10-17T01:26:04.615Z,487.52
2022-10-17T01:26:14.617Z,487.62
2022-10-17T01:26:24.621Z,487.64
2022-10-17T01:26:34.619Z,487.74
2022-10-17T01:26:44.621Z,487.80
2022-10-17T01:26:54.625Z,487.62
2022-10-17T01:27:04.621Z,487.47
2022-10-17T01:27:14.624Z,487.55
2022-10-17T01:27:24.629Z,487.71
2022-10-17T01:27:34.606Z,487.67
2022-10-17T01:27:44.627Z,487.72
2022-10-17T01:27:54.627Z,487.72
2022-10-17T01:28:04.628Z,487.63
2022-10-17T01:28:14.627Z,487.54
2022-10-17T01:28:24.710Z,487.60
2022-10-17T01:28:34.796Z,487.56
2022-10-17T01:28:44.640Z,487.64
2022-10-17T01:28:54.629Z,487.70
2022-10-17T01:29:04.641Z,487.74
2022-10-17T01:29:14.631Z,487.76
2022-10-17T01:29:24.614Z,487.72
2022-10-17T01:29:34.638Z,487.62
2022-10-17T01:29:44.634Z,487.69
2022-10-17T01:29:54.635Z,487.59
2022-10-17T01:30:04.641Z,487.55
2022-10-17T01:30:14.639Z,487.61
2022-10-17T01:30:24.640Z,487.69
2022-10-17T01:30:34.659Z,487.75
2022-10-17T01:30:44.639Z,487.74
2022-10-17T01:30:54.643Z,487.70
2022-10-17T01:31:04.650Z,487.65
2022-10-17T01:31:14.626Z,487.62
2022-10-17T01:31:24.642Z,487.71
2022-10-17T01:31:34.643Z,487.66
2022-10-17T01:31:44.642Z,487.49
2022-10-17T01:31:54.643Z,487.50
2022-10-17T01:32:04.661Z,487.57
2022-10-17T01:32:14.646Z,487.61
2022-10-17T01:32:24.946Z,487.48
2022-10-17T01:32:34.647Z,487.67
2022-10-17T01:32:44.647Z,487.63
2022-10-17T01:32:54.630Z,487.70
2022-10-17T01:33:04.650Z,487.75
2022-10-17T01:33:14.654Z,487.78
2022-10-17T01:33:24.651Z,487.80
2022-10-17T01:33:34.651Z,487.66
2022-10-17T01:33:44.641Z,487.65
2022-10-17T01:33:54.653Z,487.65
2022-10-17T01:34:04.653Z,487.58
2022-10-17T01:34:14.655Z,487.73
2022-10-17T01:34:24.655Z,487.70
2022-10-17T01:34:34.657Z,487.86
2022-10-17T01:34:44.656Z,487.93
2022-10-17T01:34:54.658Z,487.87
2022-10-17T01:35:04.660Z,487.85
2022-10-17T01:35:14.661Z,488.02
2022-10-17T01:35:24.662Z,488.00
2022-10-17T01:35:34.659Z,488.03
2022-10-17T01:35:44.663Z,488.03
2022-10-17T01:35:54.663Z,488.08
2022-10-17T01:36:05.881Z,488.00
2022-10-17T01:36:14.666Z,487.95
2022-10-17T01:36:24.664Z,487.96
2022-10-17T01:36:34.665Z,488.00
2022-10-17T01:36:44.666Z,488.06
2022-10-17T01:36:54.667Z,487.94
2022-10-17T01:37:04.670Z,487.99
2022-10-17T01:37:14.671Z,487.98
2022-10-17T01:37:24.672Z,488.07
2022-10-17T01:37:34.739Z,488.04
2022-10-17T01:37:44.702Z,488.14
2022-10-17T01:37:54.681Z,488.12
2022-10-17T01:38:04.675Z,488.14
2022-10-17T01:38:14.676Z,488.10
2022-10-17T01:38:24.675Z,488.05
2022-10-17T01:38:34.677Z,487.99
2022-10-17T01:38:44.681Z,487.91
2022-10-17T01:38:54.680Z,487.82
2022-10-17T01:39:04.681Z,487.78
2022-10-17T01:39:14.683Z,487.80
2022-10-17T01:39:26.899Z,487.74
2022-10-17T01:39:36.970Z,487.62
2022-10-17T01:39:45.637Z,487.77
2022-10-17T01:39:54.686Z,487.91
2022-10-17T01:40:04.687Z,487.77
2022-10-17T01:40:14.691Z,487.71
2022-10-17T01:40:24.692Z,487.75
2022-10-17T01:40:34.689Z,487.86
2022-10-17T01:40:44.693Z,488.19
2022-10-17T01:40:54.690Z,488.30
2022-10-17T01:41:04.690Z,488.24
2022-10-17T01:41:14.691Z,488.14
2022-10-17T01:41:24.696Z,488.10
2022-10-17T01:41:34.693Z,487.96
2022-10-17T01:41:44.696Z,487.71
2022-10-17T01:41:54.694Z,487.83
2022-10-17T01:42:04.697Z,487.89
2022-10-17T01:42:14.684Z,488.07
2022-10-17T01:42:24.927Z,488.05
2022-10-17T01:42:34.699Z,487.95
2022-10-17T01:42:44.701Z,488.03
2022-10-17T01:42:54.702Z,488.00
2022-10-17T01:43:04.704Z,488.11
2022-10-17T01:43:14.704Z,487.96
2022-10-17T01:43:24.705Z,488.10
2022-10-17T01:43:34.708Z,488.14
2022-10-17T01:43:44.713Z,488.21
2022-10-17T01:43:54.709Z,488.15
2022-10-17T01:44:04.732Z,488.13
2022-10-17T01:44:14.696Z,488.13
2022-10-17T01:44:24.712Z,488.15
2022-10-17T01:44:34.714Z,488.17
2022-10-17T01:44:44.716Z,488.22
2022-10-17T01:44:54.713Z,488.17
2022-10-17T01:45:04.697Z,488.14
2022-10-17T01:45:14.718Z,488.18
2022-10-17T01:45:24.715Z,488.03
2022-10-17T01:45:34.715Z,488.04
2022-10-17T01:45:44.718Z,488.04
2022-10-17T01:45:54.721Z,488.24
2022-10-17T01:46:04.721Z,488.45
2022-10-17T01:46:14.738Z,488.45
2022-10-17T01:46:24.722Z,488.47
2022-10-17T01:46:34.722Z,488.32
2022-10-17T01:46:44.777Z,488.23
2022-10-17T01:46:54.723Z,488.26
2022-10-17T01:47:04.726Z,488.28
2022-10-17T01:47:14.724Z,488.23
2022-10-17T01:47:24.860Z,488.24
2022-10-17T01:47:34.727Z,488.36
2022-10-17T01:47:44.728Z,488.24
2022-10-17T01:47:54.730Z,488.13
2022-10-17T01:48:04.729Z,488.15
2022-10-17T01:48:14.732Z,488.18
2022-10-17T01:48:24.733Z,488.17
2022-10-17T01:48:34.739Z,488.11
2022-10-17T01:48:44.733Z,488.03
2022-10-17T01:48:54.733Z,488.05
2022-10-17T01:49:04.733Z,488.05
2022-10-17T01:49:14.737Z,488.12
2022-10-17T01:49:24.736Z,488.08
2022-10-17T01:49:34.736Z,488.12
2022-10-17T01:49:44.740Z,488.28
2022-10-17T01:49:54.741Z,488.26
2022-10-17T01:50:04.741Z,488.29
2022-10-17T01:50:14.742Z,488.34
2022-10-17T01:50:24.746Z,488.51
2022-10-17T01:50:34.746Z,488.51
2022-10-17T01:50:44.748Z,488.37
2022-10-17T01:50:54.747Z,488.36
2022-10-17T01:51:04.745Z,488.30
2022-10-17T01:51:14.748Z,488.37
2022-10-17T01:51:24.749Z,488.46
2022-10-17T01:51:34.748Z,488.42
2022-10-17T01:51:44.752Z,488.30
2022-10-17T01:51:54.752Z,488.14
2022-10-17T01:52:04.750Z,488.17
2022-10-17T01:52:14.742Z,488.26
2022-10-17T01:52:24.736Z,488.47
2022-10-17T01:52:34.757Z,488.55
2022-10-17T01:52:44.755Z,488.58
2022-10-17T01:52:54.755Z,488.65
2022-10-17T01:53:04.738Z,488.55
2022-10-17T01:53:14.768Z,488.58
2022-10-17T01:53:24.759Z,488.51
2022-10-17T01:53:34.758Z,488.38
2022-10-17T01:53:44.791Z,488.38
2022-10-17T01:53:54.759Z,488.34
2022-10-17T01:54:04.763Z,488.39
2022-10-17T01:54:14.764Z,488.34
2022-10-17T01:54:24.767Z,488.32
2022-10-17T01:54:34.844Z,488.51
2022-10-17T01:54:44.764Z,488.46
2022-10-17T01:54:54.764Z,488.59
2022-10-17T01:55:04.766Z,488.57
2022-10-17T01:55:14.764Z,488.55
2022-10-17T01:55:24.767Z,488.45
2022-10-17T01:55:34.767Z,488.52
2022-10-17T01:55:44.798Z,488.48
2022-10-17T01:55:54.812Z,488.36
2022-10-17T01:56:04.752Z,488.55
2022-10-17T01:56:14.770Z,488.61
2022-10-17T01:56:24.773Z,488.56
2022-10-17T01:56:36.171Z,488.64
2022-10-17T01:56:44.771Z,488.66
2022-10-17T01:56:54.771Z,488.73
2022-10-17T01:57:04.773Z,488.74
2022-10-17T01:57:14.775Z,488.71
2022-10-17T01:57:24.907Z,488.91
2022-10-17T01:57:34.776Z,488.84
2022-10-17T01:57:44.778Z,488.87
2022-10-17T01:57:54.779Z,488.96
2022-10-17T01:58:04.779Z,488.86
2022-10-17T01:58:14.781Z,488.90
2022-10-17T01:58:24.780Z,489.07
2022-10-17T01:58:34.782Z,489.03
2022-10-17T01:58:44.782Z,488.99
2022-10-17T01:58:54.807Z,489.08
2022-10-17T01:59:04.783Z,489.15
2022-10-17T01:59:14.786Z,489.10
2022-10-17T01:59:24.787Z,489.22
2022-10-17T01:59:34.903Z,489.26
2022-10-17T01:59:44.787Z,489.25
2022-10-17T01:59:54.789Z,489.32
2022-10-17T02:00:04.791Z,489.27
2022-10-17T02:00:14.791Z,489.30
2022-10-17T02:00:24.794Z,489.25
2022-10-17T02:00:34.810Z,489.29
2022-10-17T02:00:44.796Z,489.28
2022-10-17T02:00:54.795Z,489.39
2022-10-17T02:01:04.846Z,489.33
2022-10-17T02:01:14.866Z,489.49
2022-10-17T02:01:24.841Z,489.51
2022-10-17T02:01:34.846Z,489.45
2022-10-17T02:01:44.864Z,489.42
2022-10-17T02:01:54.799Z,489.33
2022-10-17T02:02:04.799Z,489.42
2022-10-17T02:02:14.800Z,489.28
2022-10-17T02:02:24.801Z,489.41
2022-10-17T02:02:34.823Z,489.44
2022-10-17T02:02:44.803Z,489.47
2022-10-17T02:02:54.804Z,489.34
2022-10-17T02:03:04.805Z,489.47
2022-10-17T02:03:14.807Z,489.37
2022-10-17T02:03:24.806Z,489.29
2022-10-17T02:03:34.807Z,489.50
2022-10-17T02:03:44.808Z,489.59
2022-10-17T02:03:54.818Z,489.63
2022-10-17T02:04:04.812Z,489.68
2022-10-17T02:04:14.812Z,489.64
2022-10-17T02:04:24.812Z,489.62
2022-10-17T02:04:34.816Z,489.55
2022-10-17T02:04:44.817Z,489.72
2022-10-17T02:04:54.846Z,489.62
2022-10-17T02:05:04.828Z,489.51
2022-10-17T02:05:14.818Z,489.51
2022-10-17T02:05:24.819Z,489.57